Calendrier de Évènements

L lun

M mar

M mer

J jeu

V ven

S sam

D dim

0 évènement,

0 évènement,

0 évènement,

0 évènement,

0 évènement,

0 évènement,

0 évènement,

0 évènement,

0 évènement,

0 évènement,

0 évènement,

0 évènement,

0 évènement,

0 évènement,

0 évènement,

0 évènement,

0 évènement,

0 évènement,

0 évènement,

0 évènement,

0 évènement,

0 évènement,

0 évènement,

0 évènement,

0 évènement,

0 évènement,

0 évènement,

0 évènement,

0 évènement,

0 évènement,

0 évènement,

0 évènement,

0 évènement,

0 évènement,

0 évènement,

METAR :

LFQA 122200Z AUTO 13003KT CAVOK 18/09 Q1014


vue en direct sur l'aérodrome
facturation mentions légales politique de confidentialité
Cochet Concept
cx